Jorge Santa Cruz

Olheiro-Chefe - Libertad
21 Out 2027
Quinta-feira
Processo

Personalidade

Adaptabilidade (12) Ambição (17) Controvérsia (17) Lealdade (6) Pressão (6) Profissionalismo (20) Espírito Esportivo (5) Temperamento (17)

Perfil

Estilo de Treinamento Democrático
Licença Continental A
Determinação 7
Gestão de Pessoas 12
Motivação 10
Disciplina 7
Satisfação no Trabalho
79%
Fadiga
0%
Função Olheiro-Chefe
Salário 78.3K p/s
Contrato 14.03.2028

Desempenho

Comportamento Bom
Eficácia do Treinamento
25%
Desenvolvimento do Jogador
40%
Prevenção de Lesões
35%
Implementação Tática
35%

Eventos Recentes

Avaliou um jogador agora
Avaliou um jogador agora
Participou de uma reunião de recrutamento agora
Recomendou um alvo de transferência agora
Recomendou um alvo de transferência agora
Recomendou um alvo de transferência agora
Avaliou um jogador 7d atrás
Avaliou um jogador 7d atrás

Monitorando agora

200
Jogador Clube Status Habilidade Confiança Observado Última observação Último voto
Samuel Velásquez Atletico Nacional Ativo 131 / 115 40% 6 19.10.2027 -
Ivan Moreno Cortulua Ativo 120 / 113 40% 2 19.10.2027 -
Cristian Barrios Junior Ativo 131 / 121 40% 3 18.10.2027 -
David Damboama El-Kanemi Warriors Ativo 85 / 104 40% 1 18.10.2027 -
Onuorah Onyedika Kun Khalifat Ativo 75 / 74 40% 1 18.10.2027 -
Mikkel Hope Haugesund Ativo 87 / 95 40% 1 17.10.2027 -
Gift Udoh Ikorodu City Ativo 88 / 102 40% 1 17.10.2027 -
Edwar López Deportes Tolima Ativo 124 / 104 40% 5 16.10.2027 -
Daniel Valencia America de Cali Ativo 116 / 122 40% 3 16.10.2027 -
Bryan Castrillón Independiente Medellin Ativo 116 / 112 40% 4 14.10.2027 -
Junior Machis Atletico Venezuela Ativo 87 / 96 40% 1 14.10.2027 -
Matías Canedo Rampla Juniors Ativo 88 / 92 40% 1 14.10.2027 -
Nicolás Benedetti Deportivo Cali Ativo 125 / 124 40% 4 12.10.2027 -
Luis Miranda La Equidad Ativo 112 / 102 40% 2 12.10.2027 -
Johan Martínez Deportivo Cali Ativo 131 / 130 40% 6 11.10.2027 -
Iñaki Larthirigoyen San Telmo Ativo 126 / 113 40% 2 11.10.2027 -
Marcus Vinicius Deportivo Pereira Ativo 113 / 102 40% 2 10.10.2027 -
Yuber Quiñónes Deportivo Pereira Ativo 122 / 120 40% 5 09.10.2027 -
Alejo Cruz Juventud Ativo 131 / 112 40% 4 09.10.2027 -
Manuel Ospina Cortulua Ativo 133 / 128 40% 5 08.10.2027 -
Santiago Sala Güemes Ativo 116 / 108 40% 3 08.10.2027 -
Yílmar Velásquez Santa Fe Ativo 120 / 130 40% 1 07.10.2027 -
Federico Bisanz Atlanta Ativo 120 / 126 40% 1 06.10.2027 -
Mateo Castillo Millonarios Ativo 130 / 120 40% 1 06.10.2027 -
Jannenson Sarmiento Junior Ativo 125 / 114 40% 5 05.10.2027 -
Fabricio Rojas Gimnasia y Tiro Ativo 107 / 120 40% 1 02.10.2027 -
Edison López Real Cartagena Ativo 118 / 125 40% 1 01.10.2027 -
Jáder Valencia Deportes Tolima Ativo 119 / 109 40% 2 29.09.2027 -
Mateo Zuleta Once Caldas Ativo 127 / 114 40% 1 28.09.2027 -
Dylan Borrero America de Cali Ativo 128 / 113 40% 6 26.09.2027 -
Toni Villa Real Cartagena Ativo 121 / 108 40% 4 24.09.2027 -
Gianluca Pugliese Güemes Ativo 107 / 116 40% 2 22.09.2027 -
Sebastián Acosta Deportivo Pereira Ativo 126 / 124 40% 1 20.09.2027 -
Camilo Mena Independiente Medellin Ativo 124 / 109 40% 1 18.09.2027 -
Gastón Moreyra Almirante Brown Ativo 115 / 119 40% 1 17.09.2027 -
Duvan Rangel La Equidad Ativo 138 / 125 40% 3 13.09.2027 -
Adrián Parra Deportes Tolima Ativo 116 / 128 40% 1 04.09.2027 -
Emerson Batalla Atletico Bucaramanga Ativo 127 / 134 40% 1 02.09.2027 -
Juan Sebastián Herrera Deportivo La Guaira Ativo 116 / 102 40% 1 01.09.2027 -
Luciano Boggio Nacional Ativo 131 / 119 40% 1 31.08.2027 -
Sergio Bacca Cortulua Ativo 123 / 125 40% 1 31.08.2027 -
Leandro Suhr Boston River Ativo 122 / 125 40% 1 27.08.2027 -
Jonathan Cañete Portuguesa Ativo 123 / 118 40% 1 18.08.2027 -
Alessio Zerbin Frosinone Ativo 135 / 146 40% 2 17.08.2027 -
Adalberto Peñaranda Deportivo Tachira Ativo 117 / 123 40% 1 12.08.2027 -
Tomáš Rigo Stoke City Ativo 150 / 147 40% 1 09.08.2027 -
Ronan Hale Gillingham Ativo 102 / 96 40% 1 09.08.2027 -
Richard Koné Queens Park Rangers Ativo 134 / 124 40% 2 08.08.2027 -
Othmane Maamma Watford Ativo 120 / 126 40% 1 08.08.2027 -
Aaron Collins Milton Keynes Dons Ativo 112 / 111 40% 1 07.08.2027 -
Ethan Williams Peterborough United Ativo 134 / 110 40% 1 07.08.2027 -
Ollie Tanner Cardiff City Ativo 113 / 102 40% 1 05.08.2027 -
Ilias Chair Queens Park Rangers Ativo 134 / 138 40% 1 05.08.2027 -
David Turnbull Cardiff City Ativo 131 / 139 40% 1 03.08.2027 -
Ilyas Ansah Hull City Ativo 130 / 140 40% 1 03.08.2027 -
Aldo Pérez Guarani Ativo 109 / 110 58% 1 19.07.2027 Aprovar
Lautaro Vargas Leganés Ativo 118 / 116 40% 1 19.07.2027 -
Cian Ashford Cardiff City Ativo 116 / 116 40% 1 19.07.2027 -
Ariel Gamarra Cerro Porteno Ativo 120 / 114 58% 1 05.07.2027 Aprovar
Eom Ji-Sung Swansea City Ativo 114 / 119 40% 1 05.07.2027 -
Julio Alonso Huesca Ativo 111 / 106 40% 1 05.07.2027 -
Rodrigo Gómez Cerro Porteno Ativo 91 / 97 58% 1 14.06.2027 Aprovar
Fabricio Domínguez Cerro Porteno Perdido 132 / 123 58% 1 07.06.2027 -
Tiago Freitas Benfica Ativo 105 / 112 40% 3 02.06.2027 -
Matías Gómez Granada Ativo 122 / 115 40% 10 29.05.2027 -
Darryl Bakola Padova Ativo 96 / 107 40% 1 29.05.2027 -
Joel McGregor Swindon Town Ativo 104 / 109 40% 4 27.05.2027 -
Adam Bakoune Ospitaletto Ativo 86 / 92 40% 2 26.05.2027 -
Riley Owen Trento Ativo 100 / 118 40% 3 24.05.2027 -
Daniel Kelly Oxford United Ativo 96 / 113 40% 2 24.05.2027 -
Leonardo Mendicino Bari Ativo 121 / 138 40% 1 21.05.2027 -
Leandro Martins Benfica Ativo 107 / 81 40% 3 19.05.2027 -
Samuel Lucero Defensa y Justicia Ativo 115 / 113 40% 3 18.05.2027 -
Simone Kosijer Triestina Ativo 97 / 115 40% 1 16.05.2027 -
Jan Bürger Gillingham Ativo 95 / 119 40% 4 11.05.2027 -
Hlompho Lorch Ajax Cape Town Ativo 107 / 96 40% 2 09.05.2027 -
Zane Albarus Cambridge United Ativo 87 / 91 40% 2 09.05.2027 -
Daniel Costa Sporting CP Ativo 82 / 89 40% 3 07.05.2027 -
Keagan Tau Ajax Cape Town Ativo 103 / 110 40% 1 07.05.2027 -
Martim Cunha Porto Ativo 114 / 126 40% 3 05.05.2027 -
Yussif Saidu Zaragoza Ativo 111 / 116 40% 5 02.05.2027 -
Sascha Britschgi Padova Ativo 126 / 127 40% 4 30.04.2027 -
Dylan Lawlor Cardiff City Ativo 107 / 104 40% 4 28.04.2027 -
Kazunari Kita Real Sociedad Ativo 112 / 113 40% 3 24.04.2027 -
Matvey Kislyak CSKA Moscow Ativo 140 / 146 40% 2 23.04.2027 -
Juan Giménez Celta Ativo 128 / 106 40% 2 23.04.2027 -
Gonçalo Oliveira Benfica Ativo 116 / 126 40% 2 18.04.2027 -
Ernie Weaver AFC Wimbledon Ativo 94 / 121 40% 2 13.04.2027 -
David Ozoh Derby County Ativo 108 / 137 40% 3 09.04.2027 -
Keagan Phiri Platinum Stars Ativo 82 / 93 40% 1 06.04.2027 -
James Dornelly Peterborough United Ativo 119 / 97 40% 2 04.04.2027 -
Cathal Heffernan Harrogate Town Ativo 86 / 70 40% 2 31.03.2027 -
Percy Jali Free State Stars Ativo 89 / 97 40% 1 30.03.2027 -
Bernardo Lima Porto Ativo 102 / 113 40% 1 24.03.2027 -
Edwin Asamoah Berekum Chelsea Ativo 88 / 78 40% 1 23.03.2027 -
Mpho Khethang AS Police Ativo 69 / 97 40% 1 22.03.2027 -
Ronwen Phiri Platinum Stars Ativo 96 / 103 40% 1 19.03.2027 -
Jofre Torrents Ajax Ativo 108 / 133 40% 1 12.03.2027 -
Freddy Murillo Valencia Ativo 104 / 133 40% 1 05.03.2027 -
Isaac Price West Bromwich Albion Ativo 125 / 128 40% 1 14.12.2026 -
Sergio Mendoza Sportivo Trinidense Ativo 117 / 101 55% 1 06.12.2026 -
Callum O'Hare Sheffield United Ativo 131 / 115 40% 1 05.12.2026 -
Tshepang Moremi Orlando Pirates Ativo 134 / 98 40% 1 03.12.2026 -
Georginio Rutter Brighton Ativo 162 / 126 40% 1 03.12.2026 -
Ángel Benítez Sportivo Luqueno Ativo 109 / 114 55% 1 02.12.2026 -
Santiago Rodríguez Gimnasia y Esgrima Perdido 108 / 109 40% 5 01.12.2026 Observar
Maximiliano Centurión Sportivo Trinidense Ativo 94 / 119 55% 1 01.12.2026 -
Razvan Balasa Crvena Zvezda Ativo 165 / 167 40% 1 30.11.2026 -
Luciano Gondou CSKA Moscow Ativo 139 / 132 40% 3 29.11.2026 -
Aune Heggebø West Bromwich Albion Ativo 116 / 117 40% 1 29.11.2026 -
Enzo Copetti Rosario Central Ativo 112 / 122 40% 2 28.11.2026 -
Rafael Santos Borré Torino Ativo 127 / 116 40% 1 27.11.2026 -
Gustavo Del Prete San Lorenzo Ativo 126 / 112 40% 1 26.11.2026 -
Jhonatan Candia Barracas Central Ativo 112 / 135 40% 2 25.11.2026 -
Oli McBurnie Hull City Ativo 135 / 125 40% 2 24.11.2026 -
Tom Cannon Sheffield United Ativo 130 / 131 40% 1 24.11.2026 -
Giacomo Raspadori Atalanta Ativo 153 / 129 40% 1 20.11.2026 -
Nicolás Cordero Aldosivi Ativo 122 / 121 40% 2 18.11.2026 -
Marcelo Estigarribia Unión de Santa Fe Ativo 116 / 124 40% 1 18.11.2026 -
Tomás O'Connor Gimnasia y Esgrima Perdido 133 / 136 40% 1 17.11.2026 -
Alexis Cuello San Lorenzo Ativo 136 / 127 40% 3 16.11.2026 -
Tomás Molina Argentinos Juniors Ativo 128 / 126 40% 1 14.11.2026 -
Eduardo Armenta Ufa Ativo 108 / 101 40% 1 12.11.2026 -
Marcelino Moreno Lanús Ativo 127 / 128 40% 1 12.11.2026 -
Franco Watson Lanús Ativo 133 / 121 40% 1 12.11.2026 Mais informações
Ola Brynhildsen Bodo/Glimt Ativo 115 / 105 40% 1 10.11.2026 -
Alan Lescano Argentinos Juniors Ativo 140 / 136 40% 1 10.11.2026 -
Matías Cóccaro Newell's Old Boys Ativo 111 / 110 40% 3 06.11.2026 -
Adrián Spörle Belgrano Ativo 122 / 132 40% 1 04.11.2026 -
Adrián Sánchez Belgrano Ativo 116 / 131 40% 1 04.11.2026 -
Marcelo Torres Gimnasia La Plata Ativo 128 / 128 40% 2 03.11.2026 -
Gonzalo Ríos Independiente Rivadavia Ativo 117 / 125 40% 1 02.11.2026 -
Breel Embolo Atlanta United FC Ativo 147 / 157 40% 3 01.11.2026 -
Francisco González Metilli Belgrano Ativo 123 / 120 40% 2 31.10.2026 -
Agustín Módica Gimnasia y Esgrima Ativo 130 / 135 40% 1 29.10.2026 -
Matías Fernández Independiente Rivadavia Ativo 116 / 119 40% 1 25.10.2026 -
Mariano Bracamonte Deportivo Riestra Ativo 130 / 103 40% 1 25.10.2026 -
Alejandro Melo Cibalia Ativo 105 / 116 40% 1 24.10.2026 -
Takuma Asano Sanfrecce Hiroshima Ativo 148 / 146 40% 1 21.10.2026 -
Agustín Anello Philadelphia Union Ativo 127 / 107 40% 1 20.10.2026 -
Diego García Malmo FF Ativo 105 / 116 40% 1 19.10.2026 -
Ekain Orobengoa Real Sociedad Ativo 118 / 118 40% 1 19.10.2026 -
Federico Girotti Alianza Lima Ativo 123 / 120 40% 4 17.10.2026 -
Tadeo Allende Inter Miami CF Ativo 117 / 103 40% 3 15.10.2026 -
Manfred Ugalde Spartak Moscow Ativo 135 / 125 40% 1 15.10.2026 -
Tomás Chancalay Minnesota United FC Ativo 136 / 113 40% 3 14.10.2026 -
Kelvin Yeboah Minnesota United FC Ativo 113 / 104 40% 1 12.10.2026 -
Yhormar Hurtado SonderjyskE Ativo 110 / 122 40% 2 11.10.2026 -
Lassina Traoré Shakhtar Ativo 138 / 128 40% 1 11.10.2026 -
Riqui Puig LA Galaxy Ativo 146 / 120 40% 1 10.10.2026 -
Bryan Ramírez FC Cincinnati Ativo 125 / 116 40% 1 09.10.2026 -
Sergi Palencia Los Angeles Football Club Ativo 117 / 122 40% 1 09.10.2026 -
Marquinhos Spartak Moscow Ativo 135 / 128 40% 1 08.10.2026 -
Louis Munteanu DC United Ativo 130 / 145 40% 4 06.10.2026 -
Martín Ojeda Orlando City Ativo 147 / 154 40% 3 02.10.2026 -
Jeremy Ebobisse Los Angeles Football Club Ativo 112 / 127 40% 1 02.10.2026 -
Josh Sargent Toronto FC Ativo 113 / 132 40% 1 30.09.2026 -
Lewis Morgan SuperSport United Ativo 144 / 105 40% 2 29.09.2026 -
Cheikh Sabaly Vancouver Whitecaps Ativo 115 / 136 40% 2 28.09.2026 -
Matías Pellegrini Vélez Ativo 121 / 110 40% 2 28.09.2026 -
Sead Hakšabanović Malmo FF Ativo 124 / 126 40% 2 25.09.2026 -
Luka Kurtovic NK Domzale Ativo 110 / 144 40% 1 25.09.2026 -
Pep Biel Charlotte Football Club Ativo 146 / 135 40% 2 23.09.2026 -
Oleksii Hutsuliak Polissia Ativo 126 / 129 40% 1 23.09.2026 -
Nahuel Ulariaga Hapoel Beer Sheva Ativo 114 / 130 40% 2 22.09.2026 -
Jesus Ferreira Seattle Sounders Ativo 129 / 114 40% 3 18.09.2026 -
Jordan Morris Seattle Sounders Ativo 140 / 108 40% 1 17.09.2026 -
Ammar Ramadan DAC Dunajska Streda Ativo 116 / 103 40% 1 16.09.2026 -
Andreas Helmersen Bodo/Glimt Ativo 116 / 107 40% 1 13.09.2026 -
Adilson Córdoba Ativo 111 / 106 40% 1 13.09.2026 -
Theo Corbeanu Toronto FC Ativo 138 / 132 40% 1 11.09.2026 -
Rafael Navarro St. Louis CITY SC Ativo 142 / 134 40% 1 09.09.2026 -
Morgan Guilavogui Real Salt Lake Ativo 130 / 112 40% 1 09.09.2026 -
Mateusz Bogusz Houston Dynamo Ativo 117 / 117 40% 1 06.09.2026 -
Timo Werner San Jose Earthquakes Ativo 131 / 115 40% 3 04.09.2026 -
Alexander Aravena Portland Timbers Ativo 111 / 128 40% 1 03.09.2026 -
Leonardo Campana New England Revolution Ativo 117 / 139 40% 1 02.09.2026 -
Kein Sato FC Tokyo Ativo 115 / 109 40% 2 31.08.2026 -
João Klauss LA Galaxy Ativo 117 / 133 40% 1 29.08.2026 -
Sam Surridge Nashville SC Ativo 117 / 121 40% 2 28.08.2026 -
Bamba Dieng Crvena Zvezda Ativo 122 / 114 40% 1 28.08.2026 -
Bénie Traoré New York City Ativo 106 / 137 40% 1 27.08.2026 -
Duncan McGuire Houston Dynamo Ativo 108 / 134 40% 1 24.08.2026 -
Ramiro Ruiz Rodríguez Atlético Tucumán Ativo 112 / 131 40% 3 22.08.2026 -
Eryc Castillo Alianza Lima Ativo 121 / 117 40% 2 22.08.2026 -
Nəriman Axundzadə Columbus Crew Ativo 119 / 107 40% 1 21.08.2026 -
Kévin Denkey FC Cincinnati Ativo 112 / 148 40% 1 19.08.2026 -
Brandon Vázquez Austin FC Ativo 130 / 123 40% 1 19.08.2026 -
Braian Ojeda Orlando City Ativo 125 / 127 40% 1 19.08.2026 -
Jairo Concha Universitario Ativo 129 / 110 40% 1 18.08.2026 -
Ivan Sergeev Dinamo Moscow Ativo 109 / 106 40% 1 15.08.2026 -
Ştefan Baiaram Universitatea Craiova Ativo 127 / 136 40% 1 15.08.2026 -
Karim Konaté Red Bull Salzburg Ativo 136 / 139 40% 1 11.08.2026 -
Dominik Fiola Haladas Ativo 111 / 129 40% 1 07.08.2026 -
Harold Santiago Mosquera Cerro Porteno Perdido 111 / 107 40% 1 07.08.2026 -
Jonatan Torres Cerro Porteno Ativo 124 / 130 40% 1 05.08.2026 -
Karol Świderski Panathinaikos Ativo 115 / 126 40% 1 04.08.2026 -
Yarden Shua Beitar Jerusalem Ativo 117 / 148 40% 1 04.08.2026 -
Patrick Berg Bodo/Glimt Ativo 126 / 124 40% 1 03.08.2026 -
Maximiliano Gómez Nacional Ativo 114 / 108 40% 1 01.08.2026 -